createdAt,value
2019-04-25T00:02:21.324Z,33.61
2019-04-25T00:04:51.568Z,33.49
2019-04-25T00:07:22.849Z,33.67
2019-04-25T00:09:54.812Z,33.51
2019-04-25T00:12:25.462Z,33.51
2019-04-25T00:14:57.085Z,33.88
2019-04-25T00:17:27.220Z,34.18
2019-04-25T00:19:57.352Z,34.29
2019-04-25T00:22:45.616Z,34.01
2019-04-25T00:25:18.075Z,33.80
2019-04-25T00:27:48.584Z,34.33
2019-04-25T00:30:22.561Z,34.12
2019-04-25T00:32:53.646Z,34.64
2019-04-25T00:35:23.791Z,35.06
2019-04-25T00:37:53.799Z,35.25
2019-04-25T00:40:23.941Z,34.94
2019-04-25T00:42:54.052Z,34.90
2019-04-25T00:45:24.053Z,34.91
2019-04-25T00:47:54.072Z,35.32
2019-04-25T00:50:24.231Z,35.33
2019-04-25T00:52:54.246Z,35.78
2019-04-25T00:55:28.376Z,35.58
2019-04-25T00:57:57.657Z,36.05
2019-04-25T01:00:32.746Z,35.15
2019-04-25T01:03:04.435Z,35.53
2019-04-25T01:05:34.468Z,35.86
2019-04-25T01:08:04.674Z,35.88
2019-04-25T01:10:34.691Z,36.27
2019-04-25T01:13:05.015Z,35.83
2019-04-25T01:15:35.022Z,35.97
2019-04-25T01:18:05.623Z,36.17
2019-04-25T01:20:35.648Z,36.63
2019-04-25T01:23:05.689Z,36.10
2019-04-25T01:25:40.966Z,36.70
2019-04-25T01:28:07.668Z,36.47
2019-04-25T01:30:39.081Z,36.24
2019-04-25T01:33:10.246Z,36.83
2019-04-25T01:35:54.811Z,37.02
2019-04-25T01:38:27.167Z,36.20
2019-04-25T01:41:04.575Z,36.88
2019-04-25T01:43:36.309Z,36.93
2019-04-25T01:46:06.721Z,36.79
2019-04-25T01:48:36.704Z,37.22
2019-04-25T01:51:06.925Z,37.61
2019-04-25T01:53:36.936Z,37.21
2019-04-25T01:56:07.846Z,37.54
2019-04-25T01:58:38.064Z,37.61
2019-04-25T02:01:08.134Z,37.41
2019-04-25T02:03:39.294Z,37.33
2019-04-25T02:06:10.474Z,37.90
2019-04-25T02:08:40.681Z,37.63
2019-04-25T02:11:17.868Z,37.76
2019-04-25T02:13:47.882Z,38.20
2019-04-25T02:16:18.047Z,37.88
2019-04-25T02:18:48.047Z,37.75
2019-04-25T02:21:18.063Z,38.15
2019-04-25T02:23:48.261Z,38.23
2019-04-25T02:26:18.703Z,38.90
2019-04-25T02:28:48.839Z,39.05
2019-04-25T02:31:19.906Z,39.14
2019-04-25T02:33:49.965Z,38.60
2019-04-25T02:36:20.045Z,39.00
2019-04-25T02:38:50.098Z,39.78
2019-04-25T02:41:20.112Z,38.69
2019-04-25T02:43:50.245Z,39.58
2019-04-25T02:46:27.879Z,40.32
2019-04-25T02:49:28.783Z,41.19
2019-04-25T02:51:45.246Z,41.11
2019-04-25T02:54:15.346Z,40.62
2019-04-25T02:56:46.762Z,40.29
2019-04-25T02:59:16.923Z,40.75
2019-04-25T03:01:47.206Z,40.24
2019-04-25T03:04:17.212Z,40.87
2019-04-25T03:06:47.341Z,40.73
2019-04-25T03:09:17.347Z,41.21
2019-04-25T03:11:47.817Z,41.03
2019-04-25T03:14:18.165Z,40.78
2019-04-25T03:16:48.429Z,40.23
2019-04-25T03:19:36.564Z,40.61
2019-04-25T03:22:11.857Z,41.01
2019-04-25T03:24:42.753Z,40.60
2019-04-25T03:27:14.234Z,40.45
2019-04-25T03:29:45.736Z,40.60
2019-04-25T03:32:19.682Z,40.27
2019-04-25T03:34:47.582Z,40.63
2019-04-25T03:37:17.626Z,40.92
2019-04-25T03:39:47.751Z,40.48
2019-04-25T03:42:17.753Z,41.02
2019-04-25T03:44:47.833Z,40.79
2019-04-25T03:47:17.857Z,40.63
2019-04-25T03:49:47.894Z,42.09
2019-04-25T03:52:17.988Z,41.97
2019-04-25T03:54:48.024Z,41.94
2019-04-25T03:57:18.086Z,42.01
2019-04-25T03:59:48.045Z,42.01
2019-04-25T04:02:18.086Z,41.71
2019-04-25T04:04:48.071Z,40.96
2019-04-25T04:07:18.108Z,41.75
2019-04-25T04:09:48.102Z,42.43
2019-04-25T04:12:18.145Z,42.31
2019-04-25T04:14:48.153Z,42.25
2019-04-25T04:17:19.807Z,41.97
2019-04-25T04:19:57.512Z,42.52
2019-04-25T04:22:29.221Z,42.71
2019-04-25T04:25:03.676Z,42.06
2019-04-25T04:27:35.161Z,42.96
2019-04-25T04:30:10.116Z,43.12
2019-04-25T04:32:41.163Z,42.52
2019-04-25T04:35:11.175Z,42.50
2019-04-25T04:37:41.282Z,42.69
2019-04-25T04:40:11.705Z,42.37
2019-04-25T04:42:43.434Z,42.01
2019-04-25T04:45:15.178Z,42.49
2019-04-25T04:47:45.429Z,42.79
2019-04-25T04:50:16.695Z,41.47
2019-04-25T04:52:46.800Z,42.32
2019-04-25T04:55:18.301Z,42.13
2019-04-25T04:57:48.651Z,42.52
2019-04-25T05:00:18.756Z,42.13
2019-04-25T05:02:50.411Z,42.18
2019-04-25T05:05:39.952Z,42.39
2019-04-25T05:08:14.959Z,41.74
2019-04-25T05:10:45.914Z,43.00
2019-04-25T05:13:16.789Z,42.33
2019-04-25T05:15:47.895Z,42.51
2019-04-25T05:18:33.042Z,42.32
2019-04-25T05:20:49.616Z,42.61
2019-04-25T05:23:19.680Z,41.02
2019-04-25T05:25:49.690Z,42.67
2019-04-25T05:28:19.701Z,42.64
2019-04-25T05:30:54.330Z,42.12
2019-04-25T05:33:25.803Z,42.44
2019-04-25T05:35:55.959Z,41.93
2019-04-25T05:38:25.995Z,42.01
2019-04-25T05:40:57.666Z,42.16
2019-04-25T05:43:28.970Z,42.19
2019-04-25T05:45:59.149Z,42.39
2019-04-25T05:48:29.163Z,42.38
2019-04-25T05:50:59.244Z,42.38
2019-04-25T05:53:29.259Z,42.62
2019-04-25T05:55:59.297Z,42.78
2019-04-25T05:58:29.312Z,42.09
2019-04-25T06:00:59.359Z,42.23
2019-04-25T06:03:29.441Z,42.34
2019-04-25T06:06:23.629Z,42.53
2019-04-25T06:08:58.137Z,42.31
2019-04-25T06:11:33.660Z,42.46
2019-04-25T06:14:05.563Z,42.09
2019-04-25T06:16:36.519Z,42.08
2019-04-25T06:19:13.978Z,42.52
2019-04-25T06:21:40.094Z,42.49
2019-04-25T06:24:20.982Z,42.86
2019-04-25T06:26:53.875Z,42.43
2019-04-25T06:29:24.809Z,41.21
2019-04-25T06:32:05.697Z,42.08
2019-04-25T06:34:28.397Z,40.93
2019-04-25T06:36:58.369Z,40.97
2019-04-25T06:39:28.432Z,42.02
2019-04-25T06:41:58.513Z,42.16
2019-04-25T06:44:34.561Z,42.25
2019-04-25T06:47:07.566Z,42.29
2019-04-25T06:49:39.223Z,42.61
2019-04-25T06:52:09.369Z,42.53
2019-04-25T06:54:39.439Z,42.01
2019-04-25T06:57:09.427Z,42.71
2019-04-25T06:59:41.545Z,42.25
2019-04-25T07:02:11.581Z,42.81
2019-04-25T07:04:41.595Z,42.33
2019-04-25T07:07:13.123Z,42.26
2019-04-25T07:09:43.638Z,41.15
2019-04-25T07:12:14.725Z,42.48
2019-04-25T07:14:44.715Z,42.47
2019-04-25T07:17:14.745Z,42.35
2019-04-25T07:19:44.772Z,42.21
2019-04-25T07:22:15.520Z,42.26
2019-04-25T07:24:46.584Z,42.28
2019-04-25T07:27:18.387Z,41.87
2019-04-25T07:29:57.336Z,42.17
2019-04-25T07:32:45.317Z,42.38
2019-04-25T07:35:16.095Z,42.33
2019-04-25T07:37:46.213Z,42.93
2019-04-25T07:40:16.763Z,42.42
2019-04-25T07:42:46.860Z,42.71
2019-04-25T07:45:17.509Z,42.38
2019-04-25T07:47:47.647Z,42.50
2019-04-25T07:50:17.726Z,42.00
2019-04-25T07:52:47.813Z,42.17
2019-04-25T07:55:20.221Z,42.61
2019-04-25T07:57:50.253Z,42.69
2019-04-25T08:00:21.198Z,43.33
2019-04-25T08:02:51.235Z,42.53
2019-04-25T08:05:21.306Z,42.96
2019-04-25T08:07:51.363Z,42.09
2019-04-25T08:10:23.902Z,43.05
2019-04-25T08:12:54.101Z,43.05
2019-04-25T08:15:31.805Z,43.25
2019-04-25T08:18:04.145Z,43.30
2019-04-25T08:20:35.844Z,42.98
2019-04-25T08:23:06.536Z,42.77
2019-04-25T08:25:39.209Z,43.40
2019-04-25T08:28:08.438Z,43.21
2019-04-25T08:30:38.502Z,43.04
2019-04-25T08:33:08.648Z,43.07
2019-04-25T08:35:38.733Z,43.30
2019-04-25T08:38:08.743Z,43.97
2019-04-25T08:40:39.029Z,43.25
2019-04-25T08:43:09.408Z,43.79
2019-04-25T08:45:39.819Z,41.43
2019-04-25T08:48:09.965Z,42.88
2019-04-25T08:50:42.873Z,42.19
2019-04-25T08:53:13.647Z,43.46
2019-04-25T08:55:49.300Z,43.27
2019-04-25T08:58:35.291Z,43.01
2019-04-25T09:01:09.503Z,42.24
2019-04-25T09:03:55.973Z,42.31
2019-04-25T09:06:27.969Z,42.16
2019-04-25T09:08:58.014Z,42.50
2019-04-25T09:11:28.010Z,42.24
2019-04-25T09:13:58.027Z,42.09
2019-04-25T09:16:28.039Z,41.45
2019-04-25T09:18:58.106Z,41.66
2019-04-25T09:21:28.107Z,41.75
2019-04-25T09:23:58.158Z,41.82
2019-04-25T09:26:28.413Z,41.57
2019-04-25T09:28:58.674Z,42.20
2019-04-25T09:31:28.671Z,41.62
2019-04-25T09:33:58.763Z,41.19
2019-04-25T09:36:28.834Z,41.29
2019-04-25T09:39:00.494Z,40.97
2019-04-25T09:41:33.626Z,41.13
2019-04-25T09:44:05.299Z,41.95
2019-04-25T09:46:37.351Z,40.66
2019-04-25T09:49:21.115Z,41.73
2019-04-25T09:51:53.443Z,40.90
2019-04-25T09:54:28.281Z,41.06
2019-04-25T09:56:59.945Z,41.66
2019-04-25T09:59:30.233Z,40.80
2019-04-25T10:02:00.337Z,40.94
2019-04-25T10:04:30.337Z,40.36
2019-04-25T10:07:00.388Z,40.72
2019-04-25T10:09:30.492Z,40.39
2019-04-25T10:12:00.509Z,39.91
2019-04-25T10:14:37.549Z,39.32
2019-04-25T10:17:07.712Z,39.74
2019-04-25T10:19:37.819Z,39.48
2019-04-25T10:22:08.160Z,39.68
2019-04-25T10:24:38.507Z,38.98
2019-04-25T10:27:08.714Z,39.22
2019-04-25T10:29:44.428Z,39.58
2019-04-25T10:32:13.268Z,38.96
2019-04-25T10:34:44.676Z,39.05
2019-04-25T10:37:16.379Z,38.88
2019-04-25T10:39:46.477Z,38.85
2019-04-25T10:42:16.685Z,39.37
2019-04-25T10:44:47.136Z,38.99
2019-04-25T10:47:18.288Z,39.41
2019-04-25T10:49:48.298Z,38.91
2019-04-25T10:52:18.307Z,38.85
2019-04-25T10:54:48.329Z,38.82
2019-04-25T10:57:18.414Z,39.41
2019-04-25T11:00:00.782Z,39.14
2019-04-25T11:02:20.815Z,39.70
2019-04-25T11:04:58.530Z,39.21
2019-04-25T11:07:28.859Z,39.74
2019-04-25T11:09:58.939Z,39.19
2019-04-25T11:12:29.015Z,39.54
2019-04-25T11:14:59.101Z,40.05
2019-04-25T11:17:29.208Z,39.09
2019-04-25T11:19:59.285Z,37.69
2019-04-25T11:22:29.300Z,37.77
2019-04-25T11:24:59.331Z,37.65
2019-04-25T11:27:29.616Z,37.18
2019-04-25T11:30:10.505Z,37.96
2019-04-25T11:32:33.957Z,37.91
2019-04-25T11:35:05.880Z,37.65
2019-04-25T11:37:36.028Z,37.26
2019-04-25T11:40:15.116Z,37.39
2019-04-25T11:42:46.241Z,37.05
2019-04-25T11:45:17.337Z,36.97
2019-04-25T11:47:48.340Z,37.05
2019-04-25T11:50:18.548Z,36.40
2019-04-25T11:52:48.593Z,37.07
2019-04-25T11:55:19.146Z,37.04
2019-04-25T11:57:51.142Z,38.32
2019-04-25T12:00:24.425Z,37.54
2019-04-25T12:02:56.026Z,36.87
2019-04-25T12:05:27.639Z,36.49
2019-04-25T12:07:57.729Z,36.49
2019-04-25T12:10:28.393Z,36.43
2019-04-25T12:12:58.540Z,36.49
2019-04-25T12:15:28.775Z,36.47
2019-04-25T12:17:58.899Z,35.92
2019-04-25T12:20:28.981Z,36.41
2019-04-25T12:23:08.497Z,35.49
2019-04-25T12:25:30.782Z,36.28
2019-04-25T12:28:00.801Z,35.50
2019-04-25T12:30:38.272Z,36.15
2019-04-25T12:33:03.371Z,35.90
2019-04-25T12:35:33.474Z,35.06
2019-04-25T12:38:03.529Z,35.09
2019-04-25T12:40:34.335Z,34.98
2019-04-25T12:43:05.254Z,34.50
2019-04-25T12:45:56.158Z,34.76
2019-04-25T12:48:26.241Z,34.27
2019-04-25T12:50:56.723Z,33.66
2019-04-25T12:53:26.847Z,32.92
2019-04-25T12:55:57.016Z,31.44
2019-04-25T12:58:27.033Z,31.74
2019-04-25T13:00:59.937Z,32.84
2019-04-25T13:03:29.042Z,31.13
2019-04-25T13:06:00.138Z,30.37
2019-04-25T13:08:30.186Z,32.33
2019-04-25T13:11:07.930Z,30.39
2019-04-25T13:13:31.979Z,31.49
2019-04-25T13:16:02.053Z,29.82
2019-04-25T13:18:32.112Z,29.88
2019-04-25T13:21:03.515Z,30.42
2019-04-25T13:23:34.262Z,30.04
2019-04-25T13:26:05.674Z,29.99
2019-04-25T13:28:49.496Z,31.06
2019-04-25T13:31:21.151Z,31.06
2019-04-25T13:33:54.222Z,31.47
2019-04-25T13:36:28.454Z,30.16
2019-04-25T13:38:58.537Z,30.41
2019-04-25T13:41:28.528Z,30.52
2019-04-25T13:43:58.944Z,29.50
2019-04-25T13:46:29.087Z,28.89
2019-04-25T13:48:59.132Z,28.23
2019-04-25T13:51:29.254Z,31.28
2019-04-25T13:53:59.395Z,30.64
2019-04-25T13:56:29.426Z,30.56
2019-04-25T13:58:59.474Z,30.71
2019-04-25T14:01:29.831Z,31.35
2019-04-25T14:04:00.005Z,31.21
2019-04-25T14:06:30.388Z,31.73
2019-04-25T14:09:00.469Z,31.06
2019-04-25T14:11:32.723Z,31.65
2019-04-25T14:14:04.116Z,31.39
2019-04-25T14:16:47.940Z,31.12
2019-04-25T14:19:36.181Z,31.72
2019-04-25T14:22:07.107Z,31.33
2019-04-25T14:24:37.266Z,30.81
2019-04-25T14:27:07.294Z,30.66
2019-04-25T14:29:37.329Z,31.98
2019-04-25T14:32:09.224Z,32.39
2019-04-25T14:34:39.359Z,32.04
2019-04-25T14:37:09.437Z,31.80
2019-04-25T14:39:39.879Z,32.24
2019-04-25T14:42:10.046Z,32.09
2019-04-25T14:44:40.251Z,32.35
2019-04-25T14:47:10.320Z,33.40
2019-04-25T14:49:40.455Z,33.89
2019-04-25T14:52:10.548Z,33.60
2019-04-25T14:54:48.166Z,34.80
2019-04-25T14:57:23.420Z,33.49
2019-04-25T14:59:54.411Z,34.32
2019-04-25T15:02:26.116Z,33.82
2019-04-25T15:04:56.232Z,34.34
2019-04-25T15:07:26.246Z,34.17
2019-04-25T15:09:57.371Z,34.75
2019-04-25T15:12:27.397Z,34.08
2019-04-25T15:14:57.462Z,33.74
2019-04-25T15:17:28.415Z,33.47
2019-04-25T15:19:58.644Z,32.98
2019-04-25T15:22:28.665Z,33.12
2019-04-25T15:24:58.734Z,33.77
2019-04-25T15:27:29.164Z,34.33
2019-04-25T15:29:59.384Z,34.46
2019-04-25T15:32:31.057Z,33.83
2019-04-25T15:35:01.188Z,34.00
2019-04-25T15:37:33.802Z,34.47
2019-04-25T15:40:07.427Z,33.62
2019-04-25T15:42:41.978Z,34.29
2019-04-25T15:45:13.892Z,34.20
2019-04-25T15:47:45.530Z,34.20
2019-04-25T15:50:16.847Z,34.98
2019-04-25T15:52:46.935Z,34.50
2019-04-25T15:55:17.370Z,33.84
2019-04-25T15:57:47.468Z,33.88
2019-04-25T16:00:19.493Z,34.14
2019-04-25T16:02:49.725Z,33.70
2019-04-25T16:05:19.783Z,34.18
2019-04-25T16:07:49.859Z,34.46
2019-04-25T16:10:19.944Z,34.13
2019-04-25T16:12:50.074Z,35.24
2019-04-25T16:15:20.227Z,35.71
2019-04-25T16:17:50.353Z,35.11
2019-04-25T16:20:20.408Z,34.93
2019-04-25T16:22:50.452Z,35.12
2019-04-25T16:25:20.699Z,35.32
2019-04-25T16:27:50.973Z,35.41
2019-04-25T16:30:22.900Z,35.59
2019-04-25T16:32:52.934Z,35.82
2019-04-25T16:35:22.929Z,35.98
2019-04-25T16:37:53.015Z,35.53
2019-04-25T16:40:23.692Z,35.22
2019-04-25T16:42:53.720Z,35.24
2019-04-25T16:45:23.819Z,34.97
2019-04-25T16:47:53.961Z,35.07
2019-04-25T16:50:24.520Z,34.28
2019-04-25T16:52:54.563Z,34.11
2019-04-25T16:55:24.641Z,33.70
2019-04-25T16:57:54.864Z,33.91
2019-04-25T17:00:36.232Z,34.05
2019-04-25T17:03:06.501Z,33.88
2019-04-25T17:05:37.098Z,34.39
2019-04-25T17:08:08.222Z,34.15
2019-04-25T17:10:39.452Z,33.96
2019-04-25T17:13:10.786Z,34.04
2019-04-25T17:15:58.783Z,33.91
2019-04-25T17:18:39.829Z,33.95
2019-04-25T17:21:11.755Z,34.53
2019-04-25T17:23:41.876Z,34.67
2019-04-25T17:26:12.625Z,34.38
2019-04-25T17:28:44.275Z,34.54
2019-04-25T17:31:22.147Z,35.15
2019-04-25T17:33:56.837Z,35.84
2019-04-25T17:36:33.196Z,35.09
2019-04-25T17:39:20.738Z,34.37
2019-04-25T17:41:50.780Z,35.24
2019-04-25T17:44:20.857Z,35.04
2019-04-25T17:46:50.903Z,35.41
2019-04-25T17:49:20.898Z,35.38
2019-04-25T17:51:50.918Z,35.96
2019-04-25T17:54:20.960Z,36.38
2019-04-25T17:56:50.961Z,36.51
2019-04-25T17:59:21.035Z,36.28
2019-04-25T18:01:52.340Z,36.55
2019-04-25T18:04:22.554Z,37.15
2019-04-25T18:06:53.141Z,36.66
2019-04-25T18:09:23.956Z,36.83
2019-04-25T18:11:54.081Z,36.67
2019-04-25T18:14:24.133Z,37.14
2019-04-25T18:16:54.262Z,37.25
2019-04-25T18:19:28.751Z,37.64
2019-04-25T18:22:00.381Z,37.73
2019-04-25T18:24:45.323Z,37.51
2019-04-25T18:27:17.061Z,37.46
2019-04-25T18:29:47.202Z,37.80
2019-04-25T18:32:17.288Z,38.30
2019-04-25T18:34:58.774Z,38.45
2019-04-25T18:37:32.953Z,38.87
2019-04-25T18:40:21.355Z,38.93
2019-04-25T18:42:58.631Z,38.52
2019-04-25T18:45:30.274Z,38.52
2019-04-25T18:48:00.345Z,39.58
2019-04-25T18:50:32.115Z,38.97
2019-04-25T18:53:06.535Z,38.92
2019-04-25T18:55:44.478Z,39.36
2019-04-25T18:58:18.804Z,39.43
2019-04-25T19:00:50.523Z,40.42
2019-04-25T19:03:26.193Z,39.80
2019-04-25T19:06:00.951Z,40.25
2019-04-25T19:08:31.015Z,40.82
2019-04-25T19:11:01.082Z,40.21
2019-04-25T19:13:31.609Z,40.70
2019-04-25T19:16:01.718Z,40.97
2019-04-25T19:18:31.764Z,41.07
2019-04-25T19:21:01.835Z,41.88
2019-04-25T19:23:31.828Z,41.75
2019-04-25T19:26:01.900Z,43.37
2019-04-25T19:28:31.967Z,43.46
2019-04-25T19:31:02.022Z,44.24
2019-04-25T19:33:35.943Z,44.79
2019-04-25T19:36:04.004Z,43.71
2019-04-25T19:38:34.081Z,44.51
2019-04-25T19:41:05.730Z,44.29
2019-04-25T19:43:37.449Z,44.03
2019-04-25T19:46:07.451Z,44.55
2019-04-25T19:48:37.798Z,44.31
2019-04-25T19:51:07.813Z,44.19
2019-04-25T19:53:37.892Z,45.15
2019-04-25T19:56:08.949Z,44.25
2019-04-25T19:58:38.968Z,44.21
2019-04-25T20:01:08.962Z,43.41
2019-04-25T20:03:49.581Z,43.34
2019-04-25T20:06:23.089Z,42.36
2019-04-25T20:08:57.219Z,44.10
2019-04-25T20:11:28.878Z,44.09
2019-04-25T20:13:58.922Z,43.82
2019-04-25T20:16:30.547Z,44.05
2019-04-25T20:19:01.790Z,43.73
2019-04-25T20:21:32.981Z,42.75
2019-04-25T20:24:03.391Z,44.25
2019-04-25T20:26:33.400Z,43.25
2019-04-25T20:29:03.495Z,43.99
2019-04-25T20:31:33.570Z,43.98
2019-04-25T20:34:06.156Z,44.27
2019-04-25T20:36:35.408Z,44.32
2019-04-25T20:39:07.315Z,44.23
2019-04-25T20:41:38.921Z,43.96
2019-04-25T20:44:08.978Z,44.35
2019-04-25T20:46:39.107Z,44.47
2019-04-25T20:49:09.192Z,44.55
2019-04-25T20:51:39.249Z,44.51
2019-04-25T20:54:09.276Z,44.52
2019-04-25T20:56:39.338Z,44.44
2019-04-25T20:59:09.408Z,44.19
2019-04-25T21:01:39.584Z,44.98
2019-04-25T21:04:13.251Z,44.94
2019-04-25T21:06:43.689Z,44.57
2019-04-25T21:09:13.690Z,43.76
2019-04-25T21:11:44.387Z,44.74
2019-04-25T21:14:16.044Z,44.89
2019-04-25T21:16:59.913Z,45.16
2019-04-25T21:19:37.133Z,45.08
2019-04-25T21:22:07.132Z,45.34
2019-04-25T21:24:37.166Z,45.41
2019-04-25T21:27:07.286Z,45.31
2019-04-25T21:29:38.468Z,45.49
2019-04-25T21:32:08.479Z,45.22
2019-04-25T21:34:38.590Z,45.75
2019-04-25T21:37:09.057Z,46.23
2019-04-25T21:39:41.433Z,45.84
2019-04-25T21:42:32.026Z,45.64
2019-04-25T21:45:02.758Z,46.04
2019-04-25T21:47:32.971Z,45.56
2019-04-25T21:50:04.470Z,46.29
2019-04-25T21:52:35.028Z,46.25
2019-04-25T21:55:06.321Z,47.04
2019-04-25T21:57:36.766Z,46.82
2019-04-25T22:00:10.980Z,47.18
2019-04-25T22:02:42.940Z,47.00
2019-04-25T22:05:13.441Z,47.25
2019-04-25T22:07:44.325Z,48.00
2019-04-25T22:10:14.810Z,49.99
2019-04-25T22:12:45.065Z,51.33
2019-04-25T22:15:15.907Z,52.07
2019-04-25T22:17:45.999Z,50.32
2019-04-25T22:20:16.204Z,50.19
2019-04-25T22:22:46.534Z,49.89
2019-04-25T22:25:16.542Z,50.31
2019-04-25T22:27:47.211Z,50.24
2019-04-25T22:30:19.088Z,51.49
2019-04-25T22:33:03.614Z,51.18
2019-04-25T22:35:39.089Z,50.19
2019-04-25T22:38:09.456Z,49.71
2019-04-25T22:40:39.519Z,50.40
2019-04-25T22:43:09.899Z,50.51
2019-04-25T22:45:41.155Z,50.24
2019-04-25T22:48:11.177Z,49.83
2019-04-25T22:50:41.421Z,49.25
2019-04-25T22:53:21.581Z,49.43
2019-04-25T22:55:43.181Z,49.93
2019-04-25T22:58:13.195Z,50.60
2019-04-25T23:00:43.321Z,50.27
2019-04-25T23:03:16.762Z,50.86
2019-04-25T23:05:48.597Z,50.47
2019-04-25T23:08:18.957Z,50.55
2019-04-25T23:10:49.058Z,49.86
2019-04-25T23:13:19.094Z,50.83
2019-04-25T23:15:49.187Z,51.18
2019-04-25T23:18:19.640Z,49.97
2019-04-25T23:20:49.650Z,49.57
2019-04-25T23:23:20.093Z,49.20
2019-04-25T23:25:57.479Z,49.56
2019-04-25T23:28:29.352Z,49.86
2019-04-25T23:31:13.126Z,50.36
2019-04-25T23:33:43.267Z,49.46
2019-04-25T23:36:13.730Z,49.47
2019-04-25T23:38:43.758Z,50.75
2019-04-25T23:41:13.929Z,49.35
2019-04-25T23:43:44.020Z,50.56
2019-04-25T23:46:14.209Z,49.64
2019-04-25T23:48:44.664Z,49.85
2019-04-25T23:51:15.381Z,50.60
2019-04-25T23:53:45.706Z,51.11
2019-04-25T23:56:15.737Z,50.91
2019-04-25T23:58:46.027Z,50.87
